createdAt,value
2019-04-14T00:00:20.828Z,0
2019-04-14T00:01:02.165Z,0
2019-04-14T00:01:41.857Z,0
2019-04-14T00:02:22.792Z,0
2019-04-14T00:03:02.986Z,0
2019-04-14T00:03:43.599Z,0
2019-04-14T00:04:24.763Z,0
2019-04-14T00:05:04.729Z,0
2019-04-14T00:05:45.272Z,0
2019-04-14T00:06:26.540Z,0
2019-04-14T00:07:06.413Z,0
2019-04-14T00:07:47.190Z,0
2019-04-14T00:08:28.360Z,0
2019-04-14T00:09:08.164Z,0
2019-04-14T00:09:49.741Z,0
2019-04-14T00:10:29.296Z,0
2019-04-14T00:11:10.395Z,0
2019-04-14T00:11:50.510Z,0
2019-04-14T00:12:31.612Z,0
2019-04-14T00:13:11.542Z,0
2019-04-14T00:13:52.413Z,0
2019-04-14T00:14:33.635Z,0
2019-04-14T00:15:24.285Z,0
2019-04-14T00:15:54.956Z,0
2019-04-14T00:16:35.301Z,0
2019-04-14T00:17:15.138Z,0
2019-04-14T00:17:55.398Z,0
2019-04-14T00:18:35.979Z,0
2019-04-14T00:19:17.338Z,0
2019-04-14T00:19:57.119Z,0
2019-04-14T00:20:38.224Z,0
2019-04-14T00:21:19.070Z,0
2019-04-14T00:21:58.776Z,0
2019-04-14T00:22:40.213Z,0
2019-04-14T00:23:19.994Z,0
2019-04-14T00:24:00.848Z,0
2019-04-14T00:24:42.335Z,0
2019-04-14T00:25:21.706Z,0
2019-04-14T00:26:02.986Z,0
2019-04-14T00:26:42.824Z,0
2019-04-14T00:27:23.668Z,0
2019-04-14T00:28:05.115Z,0
2019-04-14T00:28:44.743Z,0
2019-04-14T00:29:26.239Z,0
2019-04-14T00:30:05.729Z,0
2019-04-14T00:30:46.970Z,0
2019-04-14T00:31:26.878Z,0
2019-04-14T00:32:07.464Z,0
2019-04-14T00:32:48.765Z,0
2019-04-14T00:33:28.575Z,0
2019-04-14T00:34:09.344Z,0
2019-04-14T00:34:50.743Z,0
2019-04-14T00:35:30.355Z,0
2019-04-14T00:36:10.921Z,0
2019-04-14T00:36:52.295Z,0
2019-04-14T00:37:31.980Z,0
2019-04-14T00:38:13.028Z,0
2019-04-14T00:38:53.946Z,0
2019-04-14T00:39:33.729Z,0
2019-04-14T00:40:15.007Z,0
2019-04-14T00:40:54.752Z,0
2019-04-14T00:41:43.533Z,0
2019-04-14T00:42:16.930Z,0
2019-04-14T00:42:56.468Z,0
2019-04-14T00:43:37.406Z,0
2019-04-14T00:44:17.605Z,0
2019-04-14T00:44:58.190Z,0
2019-04-14T00:45:45.152Z,0
2019-04-14T00:46:19.322Z,0
2019-04-14T00:47:00.578Z,0
2019-04-14T00:47:51.450Z,0
2019-04-14T00:48:22.503Z,0
2019-04-14T00:49:02.719Z,0
2019-04-14T00:49:42.091Z,0
2019-04-14T00:50:23.263Z,0
2019-04-14T00:51:03.222Z,0
2019-04-14T00:51:44.101Z,0
2019-04-14T00:52:25.413Z,0
2019-04-14T00:53:05.481Z,0
2019-04-14T00:53:46.487Z,0
2019-04-14T00:54:26.043Z,0
2019-04-14T00:55:07.541Z,0
2019-04-14T00:55:47.121Z,0
2019-04-14T00:56:27.948Z,0
2019-04-14T00:57:09.331Z,0
2019-04-14T00:57:48.883Z,0
2019-04-14T00:58:29.961Z,0
2019-04-14T00:59:10.075Z,0
2019-04-14T00:59:50.885Z,0
2019-04-14T01:00:31.993Z,0
2019-04-14T01:01:13.227Z,0
2019-04-14T01:01:52.795Z,0
2019-04-14T01:02:33.968Z,0
2019-04-14T01:03:13.804Z,0
2019-04-14T01:03:54.748Z,0
2019-04-14T01:04:35.828Z,0
2019-04-14T01:05:15.557Z,0
2019-04-14T01:05:56.854Z,0
2019-04-14T01:06:36.657Z,0
2019-04-14T01:07:17.357Z,0
2019-04-14T01:07:58.743Z,0
2019-04-14T01:08:38.332Z,0
2019-04-14T01:09:19.358Z,0
2019-04-14T01:09:59.699Z,0
2019-04-14T01:10:41.092Z,0
2019-04-14T01:11:20.610Z,0
2019-04-14T01:12:01.783Z,0
2019-04-14T01:12:41.714Z,0
2019-04-14T01:13:22.272Z,0
2019-04-14T01:14:03.717Z,0
2019-04-14T01:14:43.439Z,0
2019-04-14T01:15:24.614Z,0
2019-04-14T01:16:10.196Z,0
2019-04-14T01:16:45.232Z,0
2019-04-14T01:17:26.561Z,0
2019-04-14T01:18:06.288Z,0
2019-04-14T01:18:47.278Z,0
2019-04-14T01:19:28.648Z,0
2019-04-14T01:20:08.007Z,0
2019-04-14T01:20:49.193Z,0
2019-04-14T01:21:29.288Z,0
2019-04-14T01:22:09.883Z,0
2019-04-14T01:22:50.969Z,0
2019-04-14T01:23:31.027Z,0
2019-04-14T01:24:12.013Z,0
2019-04-14T01:24:53.254Z,0
2019-04-14T01:25:32.879Z,0
2019-04-14T01:26:13.853Z,0
2019-04-14T01:26:54.973Z,0
2019-04-14T01:27:34.619Z,0
2019-04-14T01:28:15.819Z,0
2019-04-14T01:28:56.589Z,0
2019-04-14T01:29:36.332Z,0
2019-04-14T01:30:17.609Z,0
2019-04-14T01:30:57.467Z,0
2019-04-14T01:31:38.239Z,0
2019-04-14T01:32:19.641Z,0
2019-04-14T01:32:59.316Z,0
2019-04-14T01:33:40.162Z,0
2019-04-14T01:34:21.576Z,0
2019-04-14T01:35:01.075Z,0
2019-04-14T01:35:42.114Z,0
2019-04-14T01:36:23.363Z,0
2019-04-14T01:37:03.016Z,0
2019-04-14T01:37:44.068Z,0
2019-04-14T01:38:25.418Z,0
2019-04-14T01:39:04.729Z,0
2019-04-14T01:39:46.017Z,0
2019-04-14T01:40:26.980Z,0
2019-04-14T01:41:06.486Z,0
2019-04-14T01:41:47.770Z,0
2019-04-14T01:42:27.873Z,0
2019-04-14T01:43:08.171Z,0
2019-04-14T01:43:49.605Z,0
2019-04-14T01:44:29.214Z,0
2019-04-14T01:45:10.026Z,0
2019-04-14T01:46:01.350Z,0
2019-04-14T01:46:32.658Z,0
2019-04-14T01:47:11.686Z,0
2019-04-14T01:47:53.274Z,0
2019-04-14T01:48:32.597Z,0
2019-04-14T01:49:13.643Z,0
2019-04-14T01:49:53.731Z,0
2019-04-14T01:50:34.484Z,0
2019-04-14T01:51:15.608Z,0
2019-04-14T01:51:55.408Z,0
2019-04-14T01:52:36.252Z,0
2019-04-14T01:53:16.524Z,0
2019-04-14T01:53:57.444Z,0
2019-04-14T01:54:38.742Z,0
2019-04-14T01:55:18.301Z,0
2019-04-14T01:55:59.229Z,0
2019-04-14T01:56:40.536Z,0
2019-04-14T01:57:20.051Z,0
2019-04-14T01:58:01.015Z,0
2019-04-14T01:58:41.131Z,0
2019-04-14T01:59:21.985Z,0
2019-04-14T02:00:03.239Z,0
2019-04-14T02:00:42.848Z,0
2019-04-14T02:01:23.831Z,0
2019-04-14T02:02:05.047Z,0
2019-04-14T02:02:44.553Z,0
2019-04-14T02:03:25.940Z,0
2019-04-14T02:04:05.662Z,0
2019-04-14T02:04:46.455Z,0
2019-04-14T02:05:27.760Z,0
2019-04-14T02:06:07.339Z,0
2019-04-14T02:06:48.383Z,0
2019-04-14T02:07:29.648Z,0
2019-04-14T02:08:09.147Z,0
2019-04-14T02:08:50.073Z,0
2019-04-14T02:09:31.516Z,0
2019-04-14T02:10:10.789Z,0
2019-04-14T02:10:52.019Z,0
2019-04-14T02:11:31.911Z,0
2019-04-14T02:12:12.795Z,0
2019-04-14T02:12:54.181Z,0
2019-04-14T02:13:33.656Z,0
2019-04-14T02:14:14.744Z,0
2019-04-14T02:14:56.116Z,0
2019-04-14T02:15:35.426Z,0
2019-04-14T02:16:25.564Z,0
2019-04-14T02:16:59.372Z,0
2019-04-14T02:17:37.162Z,0
2019-04-14T02:18:18.541Z,0
2019-04-14T02:18:58.604Z,0
2019-04-14T02:19:39.259Z,0
2019-04-14T02:20:20.628Z,0
2019-04-14T02:20:59.995Z,0
2019-04-14T02:21:41.215Z,0
2019-04-14T02:22:22.296Z,0
2019-04-14T02:23:01.848Z,0
2019-04-14T02:23:43.326Z,0
2019-04-14T02:24:24.113Z,0
2019-04-14T02:25:03.640Z,0
2019-04-14T02:25:44.930Z,0
2019-04-14T02:26:24.505Z,0
2019-04-14T02:27:05.540Z,0
2019-04-14T02:27:45.617Z,0
2019-04-14T02:28:26.455Z,0
2019-04-14T02:29:07.789Z,0
2019-04-14T02:29:47.426Z,0
2019-04-14T02:30:36.018Z,0
2019-04-14T02:31:24.173Z,0
2019-04-14T02:32:17.047Z,0
2019-04-14T02:32:56.647Z,0
2019-04-14T02:33:38.769Z,0
2019-04-14T02:34:54.791Z,0
2019-04-14T02:35:44.621Z,0
2019-04-14T02:36:21.130Z,0
2019-04-14T02:37:43.036Z,0
2019-04-14T02:39:45.674Z,0
2019-04-14T02:40:26.938Z,0
2019-04-14T02:41:02.174Z,0
2019-04-14T02:41:46.292Z,0
2019-04-14T02:43:02.492Z,0
2019-04-14T02:44:30.037Z,0
2019-04-14T02:45:07.648Z,0
2019-04-14T02:45:48.500Z,0
2019-04-14T02:46:30.821Z,0
2019-04-14T02:47:17.605Z,0
2019-04-14T02:49:01.951Z,0
2019-04-14T02:49:50.400Z,0
2019-04-14T02:50:22.764Z,0
2019-04-14T02:51:12.177Z,0
2019-04-14T02:51:47.923Z,0
2019-04-14T02:53:14.963Z,0
2019-04-14T02:54:43.328Z,0
2019-04-14T02:55:08.249Z,0
2019-04-14T02:55:57.213Z,0
2019-04-14T02:56:35.501Z,0
2019-04-14T02:57:16.536Z,0
2019-04-14T02:59:11.068Z,0
2019-04-14T02:59:58.294Z,0
2019-04-14T03:00:40.877Z,0
2019-04-14T03:01:22.876Z,0
2019-04-14T03:02:13.905Z,0
2019-04-14T03:03:21.375Z,0
2019-04-14T03:03:55.765Z,0
2019-04-14T03:04:42.640Z,0
2019-04-14T03:05:25.947Z,0
2019-04-14T03:06:40.640Z,0
2019-04-14T03:08:06.216Z,0
2019-04-14T03:08:50.587Z,0
2019-04-14T03:10:00.528Z,0
2019-04-14T03:10:47.042Z,0
2019-04-14T03:12:09.000Z,0
2019-04-14T03:12:46.254Z,0
2019-04-14T03:13:28.216Z,0
2019-04-14T03:14:53.302Z,0
2019-04-14T03:15:31.599Z,0
2019-04-14T03:16:13.466Z,0
2019-04-14T03:17:05.303Z,0
2019-04-14T03:18:57.449Z,0
2019-04-14T03:19:43.588Z,0
2019-04-14T03:20:19.893Z,0
2019-04-14T03:20:54.279Z,0
2019-04-14T03:21:33.689Z,0
2019-04-14T03:23:04.733Z,0
2019-04-14T03:23:40.139Z,0
2019-04-14T03:24:15.215Z,0
2019-04-14T03:24:46.421Z,0
2019-04-14T03:25:33.116Z,0
2019-04-14T03:26:16.863Z,0
2019-04-14T03:27:58.207Z,0
2019-04-14T03:28:17.146Z,0
2019-04-14T03:28:56.111Z,0
2019-04-14T03:29:42.624Z,0
2019-04-14T03:30:44.926Z,0
2019-04-14T03:31:24.245Z,0
2019-04-14T03:31:58.696Z,0
2019-04-14T03:34:12.587Z,0
2019-04-14T03:35:34.664Z,0
2019-04-14T03:37:49.815Z,0
2019-04-14T03:38:33.884Z,0
2019-04-14T03:39:14.813Z,0
2019-04-14T03:40:33.475Z,0
2019-04-14T03:41:16.177Z,0
2019-04-14T03:41:52.492Z,0
2019-04-14T03:43:18.159Z,0
2019-04-14T03:43:45.827Z,0
2019-04-14T03:44:40.976Z,0
2019-04-14T03:45:58.725Z,0
2019-04-14T03:46:41.197Z,0
2019-04-14T03:47:19.348Z,0
2019-04-14T03:48:16.663Z,0
2019-04-14T03:49:24.415Z,0
2019-04-14T03:49:59.526Z,0
2019-04-14T03:51:25.783Z,0
2019-04-14T03:52:01.880Z,0
2019-04-14T03:52:47.581Z,0
2019-04-14T03:53:45.347Z,0
2019-04-14T03:53:57.409Z,0
2019-04-14T03:54:39.744Z,0
2019-04-14T03:55:15.877Z,0
2019-04-14T03:55:46.789Z,0
2019-04-14T03:56:21.598Z,0
2019-04-14T03:57:01.822Z,0
2019-04-14T03:57:41.597Z,0
2019-04-14T03:58:22.580Z,0
2019-04-14T03:59:02.716Z,0
2019-04-14T03:59:43.516Z,0
2019-04-14T04:00:24.585Z,0
2019-04-14T04:01:04.435Z,0
2019-04-14T04:01:45.673Z,0
2019-04-14T04:02:25.534Z,0
2019-04-14T04:03:06.370Z,0
2019-04-14T04:03:47.767Z,0
2019-04-14T04:04:27.503Z,0
2019-04-14T04:05:08.514Z,0
2019-04-14T04:05:48.377Z,0
2019-04-14T04:06:29.211Z,0
2019-04-14T04:07:10.308Z,0
2019-04-14T04:07:50.059Z,0
2019-04-14T04:08:31.274Z,0
2019-04-14T04:09:12.457Z,0
2019-04-14T04:09:51.897Z,0
2019-04-14T04:10:33.380Z,0
2019-04-14T04:11:12.882Z,0
2019-04-14T04:11:54.103Z,0
2019-04-14T04:12:33.972Z,0
2019-04-14T04:13:14.972Z,0
2019-04-14T04:13:56.250Z,0
2019-04-14T04:14:35.809Z,0
2019-04-14T04:15:17.046Z,0
2019-04-14T04:15:56.769Z,0
2019-04-14T04:16:37.593Z,0
2019-04-14T04:17:18.908Z,0
2019-04-14T04:17:58.460Z,0
2019-04-14T04:18:50.730Z,0
2019-04-14T04:19:20.052Z,0
2019-04-14T04:20:00.142Z,0
2019-04-14T04:20:41.287Z,0
2019-04-14T04:21:21.241Z,0
2019-04-14T04:22:02.102Z,0
2019-04-14T04:22:43.416Z,0
2019-04-14T04:23:22.960Z,0
2019-04-14T04:24:04.263Z,0
2019-04-14T04:24:44.085Z,0
2019-04-14T04:25:24.757Z,0
2019-04-14T04:26:06.137Z,0
2019-04-14T04:26:45.764Z,0
2019-04-14T04:27:26.611Z,0
2019-04-14T04:28:07.760Z,0
2019-04-14T04:28:47.435Z,0
2019-04-14T04:29:28.780Z,0
2019-04-14T04:30:08.555Z,0
2019-04-14T04:30:49.402Z,0
2019-04-14T04:31:30.678Z,0
2019-04-14T04:32:10.322Z,0
2019-04-14T04:32:51.506Z,0
2019-04-14T04:33:32.650Z,0
2019-04-14T04:34:12.061Z,0
2019-04-14T04:34:53.405Z,0
2019-04-14T04:35:33.223Z,0
2019-04-14T04:36:13.980Z,0
2019-04-14T04:36:55.272Z,0
2019-04-14T04:37:34.954Z,0
2019-04-14T04:38:15.937Z,0
2019-04-14T04:38:56.109Z,0
2019-04-14T04:39:38.110Z,0
2019-04-14T04:40:17.885Z,0
2019-04-14T04:40:57.780Z,0
2019-04-14T04:41:38.672Z,0
2019-04-14T04:42:19.821Z,0
2019-04-14T04:42:59.534Z,0
2019-04-14T04:43:40.831Z,0
2019-04-14T04:44:20.650Z,5
2019-04-14T04:45:01.770Z,5
2019-04-14T04:45:43.010Z,5
2019-04-14T04:46:22.376Z,5
2019-04-14T04:47:03.475Z,0
2019-04-14T04:47:44.709Z,0
2019-04-14T04:48:24.238Z,0
2019-04-14T04:49:11.407Z,0
2019-04-14T04:49:45.220Z,5
2019-04-14T04:50:26.036Z,5
2019-04-14T04:51:07.205Z,5
2019-04-14T04:51:46.937Z,5
2019-04-14T04:52:28.030Z,0
2019-04-14T04:53:09.050Z,0
2019-04-14T04:53:48.618Z,0
2019-04-14T04:54:30.075Z,0
2019-04-14T04:55:09.780Z,5
2019-04-14T04:55:50.473Z,5
2019-04-14T04:56:31.822Z,5
2019-04-14T04:57:11.437Z,5
2019-04-14T04:57:52.372Z,0
2019-04-14T04:58:37.393Z,5
2019-04-14T04:59:19.130Z,0
2019-04-14T04:59:58.607Z,5
2019-04-14T05:00:39.461Z,0
2019-04-14T05:01:20.962Z,0
2019-04-14T05:02:00.609Z,0
2019-04-14T05:02:41.772Z,0
2019-04-14T05:03:21.829Z,0
2019-04-14T05:04:02.486Z,0
2019-04-14T05:04:43.811Z,0
2019-04-14T05:05:23.577Z,0
2019-04-14T05:06:04.594Z,0
2019-04-14T05:06:45.808Z,0
2019-04-14T05:07:25.303Z,0
2019-04-14T05:08:06.523Z,0
2019-04-14T05:08:46.393Z,0
2019-04-14T05:09:27.494Z,0
2019-04-14T05:10:08.739Z,0
2019-04-14T05:10:48.187Z,0
2019-04-14T05:11:29.477Z,0
2019-04-14T05:12:09.257Z,0
2019-04-14T05:12:50.138Z,0
2019-04-14T05:13:31.331Z,0
2019-04-14T05:14:10.979Z,0
2019-04-14T05:14:52.336Z,0
2019-04-14T05:15:33.321Z,0
2019-04-14T05:16:12.854Z,0
2019-04-14T05:16:53.404Z,0
2019-04-14T05:17:34.344Z,0
2019-04-14T05:18:15.583Z,0
2019-04-14T05:18:55.269Z,0
2019-04-14T05:19:38.641Z,0
2019-04-14T05:20:16.471Z,0
2019-04-14T05:20:57.412Z,5
2019-04-14T05:21:38.679Z,0
2019-04-14T05:22:19.286Z,5
2019-04-14T05:22:59.343Z,5
2019-04-14T05:23:39.367Z,5
2019-04-14T05:24:20.038Z,5
2019-04-14T05:25:01.436Z,5
2019-04-14T05:25:41.409Z,5
2019-04-14T05:26:22.109Z,5
2019-04-14T05:27:03.523Z,5
2019-04-14T05:27:43.137Z,5
2019-04-14T05:28:24.496Z,5
2019-04-14T05:29:05.579Z,5
2019-04-14T05:29:45.107Z,5
2019-04-14T05:30:26.398Z,5
2019-04-14T05:31:06.001Z,5
2019-04-14T05:31:46.819Z,5
2019-04-14T05:32:28.271Z,5
2019-04-14T05:33:07.776Z,5
2019-04-14T05:33:48.997Z,5
2019-04-14T05:34:28.931Z,5
2019-04-14T05:35:09.687Z,5
2019-04-14T05:35:50.923Z,5
2019-04-14T05:36:30.617Z,5
2019-04-14T05:37:11.699Z,5
2019-04-14T05:37:52.946Z,5
2019-04-14T05:38:33.886Z,5
2019-04-14T05:39:13.572Z,5
2019-04-14T05:39:54.745Z,10
2019-04-14T05:40:34.326Z,10
2019-04-14T05:41:15.820Z,10
2019-04-14T05:42:04.899Z,10
2019-04-14T05:42:36.233Z,10
2019-04-14T05:43:27.827Z,10
2019-04-14T05:44:00.240Z,10
2019-04-14T05:44:38.226Z,10
2019-04-14T05:45:18.375Z,15
2019-04-14T05:45:59.158Z,15
2019-04-14T05:46:40.301Z,15
2019-04-14T05:47:20.119Z,15
2019-04-14T05:48:01.062Z,15
2019-04-14T05:48:42.424Z,15
2019-04-14T05:49:30.142Z,15
2019-04-14T05:50:03.170Z,15
2019-04-14T05:50:44.174Z,15
2019-04-14T05:51:24.827Z,15
2019-04-14T05:52:05.499Z,15
2019-04-14T05:52:44.849Z,15
2019-04-14T05:53:26.232Z,15
2019-04-14T05:54:05.982Z,15
2019-04-14T05:54:47.096Z,15
2019-04-14T05:55:28.336Z,15
2019-04-14T05:56:07.960Z,20
2019-04-14T05:56:49.292Z,15
2019-04-14T05:57:28.758Z,15
2019-04-14T05:58:09.988Z,15
2019-04-14T05:58:49.910Z,15
2019-04-14T05:59:30.774Z,20
2019-04-14T06:00:12.360Z,20
2019-04-14T06:00:51.815Z,15
2019-04-14T06:01:32.330Z,15
2019-04-14T06:02:13.662Z,15
2019-04-14T06:02:53.480Z,20
2019-04-14T06:03:34.275Z,20
2019-04-14T06:04:15.631Z,20
2019-04-14T06:04:55.165Z,20
2019-04-14T06:05:36.134Z,20
2019-04-14T06:06:16.262Z,20
2019-04-14T06:06:56.822Z,20
2019-04-14T06:07:37.426Z,20
2019-04-14T06:08:18.027Z,20
2019-04-14T06:08:58.598Z,25
2019-04-14T06:09:39.183Z,25
2019-04-14T06:10:19.737Z,30
2019-04-14T06:11:00.314Z,30
2019-04-14T06:11:40.865Z,25
2019-04-14T06:12:21.431Z,25
2019-04-14T06:13:02.016Z,25
2019-04-14T06:13:42.570Z,30
2019-04-14T06:14:23.155Z,25
2019-04-14T06:17:37.134Z,20
2019-04-14T06:18:17.700Z,20
2019-04-14T06:18:58.256Z,20
2019-04-14T06:19:40.599Z,20
2019-04-14T06:20:19.387Z,25
2019-04-14T06:20:59.969Z,20
2019-04-14T06:21:40.534Z,20
2019-04-14T06:22:21.577Z,25
2019-04-14T06:23:02.159Z,25
2019-04-14T06:23:42.794Z,25
2019-04-14T06:24:23.622Z,25
2019-04-14T06:25:04.218Z,25
2019-04-14T06:25:44.842Z,25
2019-04-14T06:26:25.498Z,20
2019-04-14T06:27:06.077Z,20
2019-04-14T06:27:46.981Z,20
2019-04-14T06:28:27.635Z,20
2019-04-14T06:29:08.290Z,20
2019-04-14T06:29:49.115Z,20
2019-04-14T06:30:29.925Z,20
2019-04-14T06:31:10.488Z,20
2019-04-14T06:31:51.295Z,20
2019-04-14T06:32:31.834Z,20
2019-04-14T06:33:12.703Z,15
2019-04-14T06:33:53.427Z,15
2019-04-14T06:34:34.179Z,15
2019-04-14T06:35:14.770Z,20
2019-04-14T06:35:55.551Z,20
2019-04-14T06:36:36.697Z,20
2019-04-14T06:37:17.487Z,20
2019-04-14T06:37:58.214Z,15
2019-04-14T06:38:39.208Z,15
2019-04-14T06:39:20.184Z,15
2019-04-14T06:40:00.761Z,20
2019-04-14T06:40:41.332Z,20
2019-04-14T06:41:21.957Z,20
2019-04-14T06:42:02.719Z,15
2019-04-14T06:42:43.940Z,15
2019-04-14T06:43:26.663Z,20
2019-04-14T06:44:08.653Z,15
2019-04-14T06:44:49.537Z,20
2019-04-14T06:45:31.344Z,20
2019-04-14T06:46:12.195Z,20
2019-04-14T06:46:53.116Z,20
2019-04-14T06:47:34.108Z,20
2019-04-14T06:48:15.082Z,20
2019-04-14T06:48:56.187Z,20
2019-04-14T06:49:48.115Z,20
2019-04-14T06:50:17.421Z,20
2019-04-14T06:50:59.484Z,20
2019-04-14T06:51:40.567Z,20
2019-04-14T06:52:21.431Z,20
2019-04-14T06:53:02.109Z,15
2019-04-14T06:53:42.859Z,15
2019-04-14T06:54:24.014Z,15
2019-04-14T06:55:04.586Z,20
2019-04-14T06:55:45.431Z,20
2019-04-14T06:56:26.421Z,20
2019-04-14T06:57:07.171Z,20
2019-04-14T06:57:49.043Z,20
2019-04-14T06:58:29.627Z,20
2019-04-14T06:59:10.506Z,20
2019-04-14T06:59:51.288Z,25
2019-04-14T07:00:32.008Z,25
2019-04-14T07:01:13.850Z,25
2019-04-14T07:01:54.401Z,25
2019-04-14T07:02:34.961Z,25
2019-04-14T07:03:15.557Z,25
2019-04-14T07:03:57.249Z,30
2019-04-14T07:04:38.121Z,30
2019-04-14T07:05:19.123Z,30
2019-04-14T07:06:00.274Z,25
2019-04-14T07:06:40.639Z,25
2019-04-14T07:07:21.401Z,25
2019-04-14T07:08:01.994Z,25
2019-04-14T07:08:43.011Z,20
2019-04-14T07:09:23.568Z,20
2019-04-14T07:10:04.470Z,20
2019-04-14T07:10:45.508Z,20
2019-04-14T07:11:27.035Z,20
2019-04-14T07:12:07.809Z,25
2019-04-14T07:12:48.635Z,25
2019-04-14T07:13:29.321Z,25
2019-04-14T07:14:09.982Z,25
2019-04-14T07:14:51.015Z,25
2019-04-14T07:15:31.588Z,25
2019-04-14T07:16:12.131Z,30
2019-04-14T07:16:53.791Z,30
2019-04-14T07:17:34.343Z,30
2019-04-14T07:18:15.214Z,25
2019-04-14T07:18:55.979Z,25
2019-04-14T07:19:36.533Z,25
2019-04-14T07:20:17.113Z,25
2019-04-14T07:20:57.717Z,25
2019-04-14T07:21:38.384Z,25
2019-04-14T07:22:18.958Z,30
2019-04-14T07:22:59.804Z,30
2019-04-14T07:23:40.476Z,30
2019-04-14T07:24:21.401Z,30
2019-04-14T07:25:02.072Z,25
2019-04-14T07:25:42.679Z,25
2019-04-14T07:26:23.223Z,25
2019-04-14T07:27:03.854Z,25
2019-04-14T07:27:44.422Z,25
2019-04-14T07:28:24.988Z,30
2019-04-14T07:29:05.571Z,30
2019-04-14T07:29:46.864Z,30
2019-04-14T07:30:27.899Z,30
2019-04-14T07:31:08.471Z,30
2019-04-14T07:31:49.519Z,30
2019-04-14T07:32:30.078Z,30
2019-04-14T07:33:10.656Z,25
2019-04-14T07:33:51.250Z,25
2019-04-14T07:34:31.813Z,30
2019-04-14T07:35:12.368Z,30
2019-04-14T07:35:52.907Z,30
2019-04-14T07:36:33.461Z,30
2019-04-14T07:37:14.041Z,30
2019-04-14T07:37:54.614Z,30
2019-04-14T07:38:35.167Z,30
2019-04-14T07:39:15.734Z,30
2019-04-14T07:39:56.290Z,30
2019-04-14T07:40:36.851Z,30
2019-04-14T07:41:17.788Z,30
2019-04-14T07:41:58.689Z,30
2019-04-14T07:42:39.868Z,30
2019-04-14T07:43:21.007Z,30
2019-04-14T07:44:01.524Z,30
2019-04-14T07:44:42.259Z,30
2019-04-14T07:45:22.806Z,30
2019-04-14T07:46:03.355Z,30
2019-04-14T07:46:43.928Z,30
2019-04-14T07:47:24.496Z,30
2019-04-14T07:48:05.051Z,30
2019-04-14T07:48:45.639Z,30
2019-04-14T07:49:26.215Z,35
2019-04-14T07:50:14.320Z,35
2019-04-14T07:50:47.390Z,35
2019-04-14T07:51:27.953Z,40
2019-04-14T07:52:08.508Z,35
2019-04-14T07:52:49.079Z,35
2019-04-14T07:53:29.631Z,40
2019-04-14T07:54:10.184Z,35
2019-04-14T07:54:50.754Z,35
2019-04-14T07:55:31.360Z,35
2019-04-14T07:56:11.946Z,35
2019-04-14T07:56:52.509Z,35
2019-04-14T07:57:33.211Z,35
2019-04-14T07:58:13.765Z,30
2019-04-14T07:58:54.350Z,25
2019-04-14T07:59:34.912Z,25
2019-04-14T08:00:15.504Z,25
2019-04-14T08:00:56.052Z,30
2019-04-14T08:01:36.603Z,30
2019-04-14T08:02:17.161Z,30
2019-04-14T08:02:58.015Z,35
2019-04-14T08:03:38.624Z,30
2019-04-14T08:04:19.225Z,30
2019-04-14T08:04:59.802Z,30
2019-04-14T08:05:40.379Z,30
2019-04-14T08:06:20.939Z,30
2019-04-14T08:07:01.578Z,30
2019-04-14T08:07:42.164Z,30
2019-04-14T08:08:22.729Z,35
2019-04-14T08:09:03.337Z,35
2019-04-14T08:09:43.911Z,35
2019-04-14T08:10:24.447Z,35
2019-04-14T08:11:05.053Z,40
2019-04-14T08:11:45.632Z,40
2019-04-14T08:12:26.200Z,40
2019-04-14T08:13:06.794Z,40
2019-04-14T08:13:47.349Z,40
2019-04-14T08:14:27.955Z,40
2019-04-14T08:15:08.551Z,40
2019-04-14T08:15:49.150Z,40
2019-04-14T08:16:29.769Z,40
2019-04-14T08:17:10.382Z,40
2019-04-14T08:17:51.048Z,35
2019-04-14T08:18:31.642Z,35
2019-04-14T08:19:12.203Z,35
2019-04-14T08:19:52.772Z,35
2019-04-14T08:20:33.355Z,35
2019-04-14T08:21:14.066Z,35
2019-04-14T08:21:54.619Z,35
2019-04-14T08:22:35.213Z,40
2019-04-14T08:23:15.814Z,40
2019-04-14T08:23:56.369Z,40
2019-04-14T08:24:36.999Z,40
2019-04-14T08:25:17.563Z,35
2019-04-14T08:25:58.150Z,35
2019-04-14T08:26:38.728Z,40
2019-04-14T08:27:19.354Z,40
2019-04-14T08:27:59.931Z,40
2019-04-14T08:28:40.510Z,40
2019-04-14T08:29:21.097Z,40
2019-04-14T08:30:01.708Z,40
2019-04-14T08:30:42.301Z,40
2019-04-14T08:31:22.952Z,35
2019-04-14T08:32:03.509Z,35
2019-04-14T08:32:44.133Z,35
2019-04-14T08:33:24.706Z,40
2019-04-14T08:34:05.289Z,40
2019-04-14T08:34:45.876Z,40
2019-04-14T08:35:26.506Z,35
2019-04-14T08:36:07.078Z,35
2019-04-14T08:36:47.638Z,40
2019-04-14T08:37:28.229Z,40
2019-04-14T08:38:08.772Z,40
2019-04-14T08:38:49.367Z,40
2019-04-14T08:39:29.919Z,40
2019-04-14T08:40:10.503Z,40
2019-04-14T08:40:51.059Z,40
2019-04-14T08:41:31.612Z,40
2019-04-14T08:42:12.605Z,45
2019-04-14T08:42:53.359Z,45
2019-04-14T08:43:34.254Z,50
2019-04-14T08:44:14.816Z,50
2019-04-14T08:44:55.374Z,50
2019-04-14T08:45:35.934Z,45
2019-04-14T08:46:16.541Z,45
2019-04-14T08:46:57.053Z,45
2019-04-14T08:47:37.657Z,40
2019-04-14T08:48:18.206Z,40
2019-04-14T08:48:58.776Z,45
2019-04-14T08:49:39.339Z,45
2019-04-14T08:50:19.925Z,45
2019-04-14T08:51:00.494Z,45
2019-04-14T08:51:41.096Z,50
2019-04-14T08:52:23.988Z,50
2019-04-14T08:53:02.338Z,45
2019-04-14T08:53:42.920Z,45
2019-04-14T08:54:23.501Z,50
2019-04-14T08:55:04.064Z,55
2019-04-14T08:55:44.639Z,55
2019-04-14T08:56:25.205Z,50
2019-04-14T08:57:05.767Z,50
2019-04-14T08:57:46.348Z,50
2019-04-14T08:58:26.895Z,55
2019-04-14T08:59:07.473Z,60
2019-04-14T08:59:48.051Z,55
2019-04-14T09:00:28.654Z,55
2019-04-14T09:01:09.218Z,55
2019-04-14T09:01:49.796Z,55
2019-04-14T09:02:30.343Z,55
2019-04-14T09:03:11.700Z,60
2019-04-14T09:03:51.487Z,60
2019-04-14T09:04:32.057Z,60
2019-04-14T09:05:12.651Z,60
2019-04-14T09:05:53.260Z,60
2019-04-14T09:06:33.780Z,60
2019-04-14T09:07:14.407Z,60
2019-04-14T09:07:54.954Z,55
2019-04-14T09:08:35.517Z,60
2019-04-14T09:09:16.124Z,60
2019-04-14T09:09:56.716Z,60
2019-04-14T09:10:37.285Z,60
2019-04-14T09:11:17.855Z,55
2019-04-14T09:11:58.463Z,55
2019-04-14T09:12:38.987Z,50
2019-04-14T09:13:19.547Z,50
2019-04-14T09:14:00.086Z,50
2019-04-14T09:14:40.690Z,50
2019-04-14T09:15:21.238Z,50
2019-04-14T09:16:01.804Z,55
2019-04-14T09:16:42.391Z,50
2019-04-14T09:17:22.977Z,50
2019-04-14T09:18:03.530Z,50
2019-04-14T09:18:44.074Z,50
2019-04-14T09:19:24.641Z,50
2019-04-14T09:20:05.227Z,50
2019-04-14T09:20:52.002Z,50
2019-04-14T09:21:26.451Z,50
2019-04-14T09:22:06.995Z,50
2019-04-14T09:22:47.533Z,55
2019-04-14T09:23:28.104Z,55
2019-04-14T09:24:08.681Z,55
2019-04-14T09:24:49.351Z,55
2019-04-14T09:25:29.943Z,55
2019-04-14T09:26:10.530Z,55
2019-04-14T09:26:51.084Z,55
2019-04-14T09:27:31.650Z,60
2019-04-14T09:28:12.270Z,65
2019-04-14T09:28:52.814Z,65
2019-04-14T09:29:33.445Z,60
2019-04-14T09:30:14.018Z,60
2019-04-14T09:30:54.592Z,60
2019-04-14T09:31:35.175Z,60
2019-04-14T09:32:15.768Z,65
2019-04-14T09:32:56.314Z,60
2019-04-14T09:33:36.942Z,60
2019-04-14T09:34:17.527Z,55
2019-04-14T09:34:58.144Z,50
2019-04-14T09:35:38.740Z,55
2019-04-14T09:36:19.393Z,55
2019-04-14T09:37:00.000Z,55
2019-04-14T09:37:40.624Z,50
2019-04-14T09:38:21.185Z,50
2019-04-14T09:39:01.809Z,50
2019-04-14T09:39:42.451Z,50
2019-04-14T09:40:23.046Z,50
2019-04-14T09:41:03.660Z,50
2019-04-14T09:41:44.305Z,50
2019-04-14T09:42:24.897Z,50
2019-04-14T09:43:05.456Z,50
2019-04-14T09:43:46.124Z,50
2019-04-14T09:44:26.716Z,45
2019-04-14T09:45:07.347Z,45
2019-04-14T09:45:47.948Z,50
2019-04-14T09:46:28.591Z,45
2019-04-14T09:47:09.175Z,45
2019-04-14T09:47:49.771Z,45
2019-04-14T09:48:30.403Z,45
2019-04-14T09:49:11.048Z,45
2019-04-14T09:49:51.651Z,40
2019-04-14T09:50:32.195Z,40
2019-04-14T09:51:12.841Z,40
2019-04-14T09:51:53.529Z,40
2019-04-14T09:52:34.197Z,40
2019-04-14T09:53:14.931Z,40
2019-04-14T09:53:55.501Z,40
2019-04-14T09:54:36.074Z,45
2019-04-14T09:55:16.657Z,45
2019-04-14T09:55:57.382Z,45
2019-04-14T09:56:37.959Z,45
2019-04-14T09:57:18.592Z,45
2019-04-14T09:57:59.159Z,40
2019-04-14T09:58:39.728Z,40
2019-04-14T09:59:20.265Z,40
2019-04-14T10:00:00.851Z,35
2019-04-14T10:00:41.426Z,35
2019-04-14T10:01:22.461Z,35
2019-04-14T10:02:03.023Z,40
2019-04-14T10:02:43.615Z,35
2019-04-14T10:03:24.165Z,35
2019-04-14T10:04:04.752Z,35
2019-04-14T10:04:45.352Z,35
2019-04-14T10:05:25.936Z,35
2019-04-14T10:06:06.505Z,40
2019-04-14T10:06:47.171Z,40
2019-04-14T10:07:27.737Z,40
2019-04-14T10:08:08.311Z,40
2019-04-14T10:08:48.917Z,35
2019-04-14T10:09:29.510Z,35
2019-04-14T10:10:10.063Z,35
2019-04-14T10:10:50.649Z,35
2019-04-14T10:11:31.247Z,40
2019-04-14T10:12:11.824Z,40
2019-04-14T10:12:53.146Z,40
2019-04-14T10:13:33.744Z,35
2019-04-14T10:14:14.352Z,35
2019-04-14T10:14:54.933Z,30
2019-04-14T10:15:35.531Z,30